Findochty, United Kingdom
Current Conditions -  °F | °C
As of 7:50 AM on Friday 24 Oct 2014 (Local Time) from EGQS Reporting Station
Clear Clear  
Wind Chill: 40°   Ceiling: Unl
Heat Index: 45°   Visibility: 6mi
Dew Point: 37°   Wind: 9mph
Humidity: 76%   Direction: 200°SSW
Pressure: 29.65"   Gusts: NA
Location:  57.7°N, 2.9°W
Report Text: EGQS 240650Z 20008KT CAVOK 07/03 Q1004 BLU NOSIG
Loading
Personal Weather Stations






























Interactive Weather Map
Tropical Storm Tracking
New forecast layout! Learn more

10-Day Weather Forecast

Advertisements
Track Severe Weather on mobile